createdAt,value
2023-04-06T00:00:12.205Z,15.83
2023-04-06T00:02:39.155Z,15.82
2023-04-06T00:05:06.409Z,15.80
2023-04-06T00:07:34.558Z,15.79
2023-04-06T00:10:01.570Z,15.78
2023-04-06T00:12:28.637Z,15.76
2023-04-06T00:14:55.583Z,15.76
2023-04-06T00:17:22.365Z,15.74
2023-04-06T00:19:49.345Z,15.74
2023-04-06T00:22:16.208Z,15.73
2023-04-06T00:24:42.981Z,15.73
2023-04-06T00:27:09.955Z,15.70
2023-04-06T00:29:37.972Z,15.71
2023-04-06T00:32:04.885Z,15.70
2023-04-06T00:34:31.890Z,15.68
2023-04-06T00:36:58.696Z,15.67
2023-04-06T00:39:25.682Z,15.65
2023-04-06T00:41:54.220Z,15.65
2023-04-06T00:44:21.819Z,15.63
2023-04-06T00:46:48.868Z,15.62
2023-04-06T00:49:15.720Z,15.62
2023-04-06T00:51:42.686Z,15.58
2023-04-06T00:54:09.496Z,15.60
2023-04-06T00:56:36.960Z,15.59
2023-04-06T00:59:04.048Z,15.57
2023-04-06T01:01:30.897Z,15.54
2023-04-06T01:03:57.811Z,15.55
2023-04-06T01:06:24.663Z,15.54
2023-04-06T01:08:51.950Z,15.53
2023-04-06T01:11:19.176Z,15.52
2023-04-06T01:13:46.204Z,15.51
2023-04-06T01:16:13.140Z,15.51
2023-04-06T01:18:40.201Z,15.49
2023-04-06T01:21:09.684Z,15.49
2023-04-06T01:23:36.755Z,15.48
2023-04-06T01:26:03.772Z,15.45
2023-04-06T01:28:30.707Z,15.45
2023-04-06T01:30:57.660Z,15.45
2023-04-06T01:33:24.680Z,15.43
2023-04-06T01:35:51.893Z,15.41
2023-04-06T01:38:18.832Z,15.40
2023-04-06T01:40:45.977Z,15.39
2023-04-06T01:43:12.783Z,15.38
2023-04-06T01:45:39.598Z,15.37
2023-04-06T01:48:06.604Z,15.39
2023-04-06T01:50:33.489Z,15.37
2023-04-06T01:53:00.328Z,15.33
2023-04-06T01:55:27.393Z,15.35
2023-04-06T01:57:54.277Z,15.32
2023-04-06T02:00:21.165Z,15.31
2023-04-06T02:02:48.008Z,15.31
2023-04-06T02:05:15.192Z,15.28
2023-04-06T02:07:41.951Z,15.29
2023-04-06T02:10:13.932Z,15.30
2023-04-06T02:12:40.853Z,15.27
2023-04-06T02:15:08.244Z,15.26
2023-04-06T02:17:35.121Z,15.25
2023-04-06T02:20:01.919Z,15.23
2023-04-06T02:22:28.758Z,15.22
2023-04-06T02:24:55.693Z,15.21
2023-04-06T02:27:22.574Z,15.19
2023-04-06T02:29:49.392Z,15.20
2023-04-06T02:32:16.180Z,15.21
2023-04-06T02:34:43.052Z,15.18
2023-04-06T02:37:09.841Z,15.13
2023-04-06T02:39:36.933Z,15.16
2023-04-06T02:42:03.787Z,15.14
2023-04-06T02:44:30.789Z,15.12
2023-04-06T02:46:57.830Z,15.13
2023-04-06T02:49:24.568Z,15.10
2023-04-06T02:51:51.332Z,15.09
2023-04-06T02:54:18.114Z,15.08
2023-04-06T02:56:45.213Z,15.07
2023-04-06T02:59:12.284Z,15.05
2023-04-06T03:01:39.259Z,15.05
2023-04-06T03:04:06.186Z,15.06
2023-04-06T03:06:33.054Z,15.04
2023-04-06T03:09:00.096Z,15.04
2023-04-06T03:11:27.790Z,15.00
2023-04-06T03:13:54.636Z,14.98
2023-04-06T03:16:21.651Z,14.98
2023-04-06T03:18:48.776Z,14.96
2023-04-06T03:21:20.531Z,14.95
2023-04-06T03:23:47.383Z,14.94
2023-04-06T03:26:14.223Z,14.94
2023-04-06T03:28:41.679Z,14.91
2023-04-06T03:31:08.659Z,14.91
2023-04-06T03:33:35.488Z,14.90
2023-04-06T03:36:02.319Z,14.90
2023-04-06T03:38:29.160Z,14.88
2023-04-06T03:40:56.064Z,14.89
2023-04-06T03:43:22.960Z,14.86
2023-04-06T03:45:49.823Z,14.86
2023-04-06T03:48:16.709Z,14.88
2023-04-06T03:50:43.598Z,14.86
2023-04-06T03:53:10.516Z,14.85
2023-04-06T03:55:41.474Z,14.85
2023-04-06T03:58:08.467Z,14.84
2023-04-06T04:00:35.580Z,14.80
2023-04-06T04:03:03.483Z,14.79
2023-04-06T04:05:30.657Z,14.78
2023-04-06T04:07:57.600Z,14.75
2023-04-06T04:10:24.578Z,14.76
2023-04-06T04:12:51.711Z,14.74
2023-04-06T04:15:18.734Z,14.72
2023-04-06T04:17:48.174Z,14.71
2023-04-06T04:20:15.184Z,14.71
2023-04-06T04:22:42.132Z,14.68
2023-04-06T04:25:09.824Z,14.69
2023-04-06T04:27:36.697Z,14.69
2023-04-06T04:30:04.008Z,14.67
2023-04-06T04:32:31.153Z,14.67
2023-04-06T04:34:58.046Z,14.66
2023-04-06T04:37:24.789Z,14.60
2023-04-06T04:39:51.596Z,14.61
2023-04-06T04:42:18.405Z,14.59
2023-04-06T04:44:45.131Z,14.60
2023-04-06T04:47:12.081Z,14.60
2023-04-06T04:49:38.800Z,14.57
2023-04-06T04:52:05.841Z,14.58
2023-04-06T04:54:32.503Z,14.55
2023-04-06T04:56:59.282Z,14.56
2023-04-06T04:59:26.444Z,14.56
2023-04-06T05:01:55.631Z,14.56
2023-04-06T05:04:23.463Z,14.56
2023-04-06T05:06:50.687Z,14.53
2023-04-06T05:09:18.686Z,14.54
2023-04-06T05:11:45.567Z,14.55
2023-04-06T05:14:12.404Z,14.53
2023-04-06T05:16:39.336Z,14.51
2023-04-06T05:19:06.976Z,14.51
2023-04-06T05:21:33.990Z,14.51
2023-04-06T05:24:01.173Z,14.51
2023-04-06T05:26:27.996Z,14.52
2023-04-06T05:28:55.908Z,14.49
2023-04-06T05:31:23.054Z,14.48
2023-04-06T05:33:55.861Z,14.51
2023-04-06T05:36:22.696Z,14.51
2023-04-06T05:38:51.485Z,14.53
2023-04-06T05:41:18.270Z,14.54
2023-04-06T05:43:45.582Z,14.51
2023-04-06T05:46:12.354Z,14.53
2023-04-06T05:48:39.183Z,14.56
2023-04-06T05:51:07.504Z,14.56
2023-04-06T05:53:34.314Z,14.55
2023-04-06T05:56:04.798Z,14.55
2023-04-06T05:58:31.678Z,14.55
2023-04-06T06:00:59.464Z,14.55
2023-04-06T06:03:26.303Z,14.56
2023-04-06T06:05:57.134Z,14.57
2023-04-06T06:08:24.315Z,14.58
2023-04-06T06:10:51.463Z,14.58
2023-04-06T06:13:18.319Z,14.60
2023-04-06T06:15:45.153Z,14.60
2023-04-06T06:18:12.198Z,14.61
2023-04-06T06:20:39.107Z,14.62
2023-04-06T06:23:09.178Z,14.64
2023-04-06T06:25:36.208Z,14.63
2023-04-06T06:28:03.064Z,14.62
2023-04-06T06:30:29.797Z,14.67
2023-04-06T06:32:56.869Z,14.67
2023-04-06T06:35:24.008Z,14.69
2023-04-06T06:37:51.006Z,14.68
2023-04-06T06:40:19.126Z,14.70
2023-04-06T06:42:46.149Z,14.72
2023-04-06T06:45:13.040Z,14.71
2023-04-06T06:47:39.900Z,14.74
2023-04-06T06:50:07.856Z,14.75
2023-04-06T06:52:34.767Z,14.77
2023-04-06T06:55:06.181Z,14.78
2023-04-06T06:57:33.147Z,14.77
2023-04-06T07:00:01.191Z,14.81
2023-04-06T07:02:28.207Z,14.82
2023-04-06T07:04:55.231Z,14.83
2023-04-06T07:07:22.153Z,14.84
2023-04-06T07:09:48.998Z,14.87
2023-04-06T07:12:17.213Z,14.86
2023-04-06T07:14:44.106Z,14.87
2023-04-06T07:17:11.534Z,14.91
2023-04-06T07:19:38.738Z,14.92
2023-04-06T07:22:05.863Z,14.91
2023-04-06T07:24:32.752Z,14.94
2023-04-06T07:27:03.081Z,14.95
2023-04-06T07:29:30.142Z,14.95
2023-04-06T07:31:57.144Z,14.97
2023-04-06T07:34:24.249Z,14.97
2023-04-06T07:36:51.577Z,14.99
2023-04-06T07:39:18.378Z,15.02
2023-04-06T07:41:45.356Z,15.00
2023-04-06T07:44:14.368Z,15.01
2023-04-06T07:46:47.196Z,15.02
2023-04-06T07:49:14.131Z,15.02
2023-04-06T07:51:41.502Z,15.05
2023-04-06T07:54:08.714Z,15.06
2023-04-06T07:56:36.128Z,15.09
2023-04-06T07:59:04.197Z,15.11
2023-04-06T08:01:31.825Z,15.10
2023-04-06T08:03:59.839Z,15.12
2023-04-06T08:06:29.725Z,15.12
2023-04-06T08:08:59.040Z,15.13
2023-04-06T08:11:27.922Z,15.15
2023-04-06T08:13:58.226Z,15.18
2023-04-06T08:16:25.800Z,15.17
2023-04-06T08:19:00.373Z,15.19
2023-04-06T08:21:29.866Z,15.21
2023-04-06T08:23:57.109Z,15.20
2023-04-06T08:26:24.028Z,15.20
2023-04-06T08:28:51.202Z,15.21
2023-04-06T08:31:18.375Z,15.20
2023-04-06T08:33:45.808Z,15.20
2023-04-06T08:36:14.869Z,15.21
2023-04-06T08:38:44.168Z,15.22
2023-04-06T08:41:12.708Z,15.20
2023-04-06T08:43:49.341Z,15.22
2023-04-06T08:46:16.932Z,15.24
2023-04-06T08:48:51.267Z,15.23
2023-04-06T08:51:20.038Z,15.25
2023-04-06T08:53:47.668Z,15.26
2023-04-06T08:56:14.780Z,15.27
2023-04-06T08:58:43.021Z,15.28
2023-04-06T09:01:13.532Z,15.31
2023-04-06T09:03:42.039Z,15.32
2023-04-06T09:06:09.877Z,15.35
2023-04-06T09:08:39.682Z,15.36
2023-04-06T09:11:06.842Z,15.38
2023-04-06T09:13:49.783Z,15.41
2023-04-06T09:16:17.848Z,15.45
2023-04-06T09:18:49.489Z,15.45
2023-04-06T09:21:25.342Z,15.48
2023-04-06T09:24:01.348Z,15.51
2023-04-06T09:26:28.587Z,15.53
2023-04-06T09:28:57.165Z,15.59
2023-04-06T09:31:27.265Z,15.64
2023-04-06T09:33:55.558Z,15.66
2023-04-06T09:36:32.687Z,15.69
2023-04-06T09:39:01.907Z,15.71
2023-04-06T09:41:36.849Z,15.73
2023-04-06T09:44:04.010Z,15.78
2023-04-06T09:46:40.263Z,15.81
2023-04-06T09:49:14.762Z,15.85
2023-04-06T09:51:57.013Z,15.85
2023-04-06T09:54:27.624Z,15.90
2023-04-06T09:56:57.538Z,15.94
2023-04-06T09:59:49.410Z,15.98
2023-04-06T10:02:48.739Z,16.02
2023-04-06T10:05:38.629Z,16.05
2023-04-06T10:08:11.631Z,16.08
2023-04-06T10:10:39.222Z,16.12
2023-04-06T10:13:07.295Z,16.16
2023-04-06T10:15:34.824Z,16.18
2023-04-06T10:18:03.178Z,16.20
2023-04-06T10:20:41.358Z,16.22
2023-04-06T10:23:46.266Z,16.27
2023-04-06T10:26:18.690Z,16.31
2023-04-06T10:28:47.863Z,16.32
2023-04-06T10:31:15.533Z,16.32
2023-04-06T10:33:42.863Z,16.37
2023-04-06T10:36:32.797Z,16.42
2023-04-06T10:39:05.127Z,16.44
2023-04-06T10:41:46.173Z,16.46
2023-04-06T10:44:22.859Z,16.51
2023-04-06T10:47:04.168Z,16.55
2023-04-06T10:49:31.108Z,16.57
2023-04-06T10:51:58.428Z,16.61
2023-04-06T10:54:31.470Z,16.67
2023-04-06T10:56:58.466Z,16.71
2023-04-06T10:59:26.627Z,16.75
2023-04-06T11:01:54.675Z,16.77
2023-04-06T11:04:22.183Z,16.80
2023-04-06T11:06:50.325Z,16.84
2023-04-06T11:09:30.313Z,16.87
2023-04-06T11:11:58.163Z,16.91
2023-04-06T11:14:25.488Z,16.98
2023-04-06T11:16:52.816Z,17.01
2023-04-06T11:19:20.274Z,17.03
2023-04-06T11:21:49.478Z,17.06
2023-04-06T11:24:17.744Z,17.05
2023-04-06T11:26:49.885Z,17.04
2023-04-06T11:29:18.898Z,16.97
2023-04-06T11:31:51.087Z,17.07
2023-04-06T11:34:22.746Z,17.18
2023-04-06T11:37:00.944Z,17.24
2023-04-06T11:39:29.445Z,17.32
2023-04-06T11:41:59.558Z,17.39
2023-04-06T11:44:47.236Z,17.50
2023-04-06T11:47:14.260Z,17.53
2023-04-06T11:49:43.370Z,17.57
2023-04-06T11:52:21.683Z,17.64
2023-04-06T11:54:49.904Z,17.72
2023-04-06T11:57:17.871Z,17.75
2023-04-06T11:59:44.948Z,17.79
2023-04-06T12:02:12.018Z,17.83
2023-04-06T12:04:39.479Z,17.91
2023-04-06T12:07:06.388Z,17.96
2023-04-06T12:09:33.257Z,17.99
2023-04-06T12:12:00.092Z,18.05
2023-04-06T12:14:26.836Z,18.08
2023-04-06T12:16:53.743Z,18.08
2023-04-06T12:19:20.563Z,18.07
2023-04-06T12:21:47.669Z,18.10
2023-04-06T12:24:14.433Z,17.99
2023-04-06T12:26:42.611Z,18.02
2023-04-06T12:29:09.392Z,17.93
2023-04-06T12:31:37.645Z,17.89
2023-04-06T12:34:04.806Z,17.94
2023-04-06T12:36:32.628Z,17.85
2023-04-06T12:39:00.325Z,17.80
2023-04-06T12:41:27.422Z,17.73
2023-04-06T12:43:54.112Z,17.79
2023-04-06T12:46:21.238Z,18.02
2023-04-06T12:48:47.985Z,18.18
2023-04-06T12:51:14.883Z,18.26
2023-04-06T12:53:41.693Z,18.40
2023-04-06T12:56:14.445Z,18.47
2023-04-06T12:58:45.006Z,18.49
2023-04-06T13:01:14.168Z,18.49
2023-04-06T13:03:44.065Z,18.54
2023-04-06T13:06:11.801Z,18.61
2023-04-06T13:08:40.012Z,18.69
2023-04-06T13:11:10.248Z,18.72
2023-04-06T13:13:38.028Z,18.74
2023-04-06T13:16:08.352Z,18.68
2023-04-06T13:18:35.943Z,18.73
2023-04-06T13:21:02.738Z,18.77
2023-04-06T13:23:32.644Z,18.85
2023-04-06T13:26:04.529Z,18.61
2023-04-06T13:28:32.686Z,18.47
2023-04-06T13:31:01.015Z,18.63
2023-04-06T13:33:28.799Z,18.84
2023-04-06T13:35:55.851Z,18.89
2023-04-06T13:38:22.761Z,18.89
2023-04-06T13:40:50.960Z,18.90
2023-04-06T13:43:20.626Z,18.95
2023-04-06T13:45:52.097Z,18.91
2023-04-06T13:48:19.737Z,19.07
2023-04-06T13:50:47.249Z,18.86
2023-04-06T13:53:14.722Z,18.65
2023-04-06T13:55:42.101Z,18.58
2023-04-06T13:58:09.160Z,18.57
2023-04-06T14:00:36.941Z,18.51
2023-04-06T14:03:04.093Z,18.56
2023-04-06T14:05:34.526Z,18.52
2023-04-06T14:08:01.827Z,18.48
2023-04-06T14:10:29.190Z,18.48
2023-04-06T14:12:57.060Z,18.58
2023-04-06T14:15:25.755Z,18.55
2023-04-06T14:17:52.816Z,18.51
2023-04-06T14:20:20.120Z,18.50
2023-04-06T14:22:47.798Z,18.49
2023-04-06T14:25:14.759Z,18.56
2023-04-06T14:27:41.725Z,18.55
2023-04-06T14:30:09.739Z,18.83
2023-04-06T14:32:38.787Z,18.96
2023-04-06T14:35:08.801Z,19.06
2023-04-06T14:37:35.895Z,19.18
2023-04-06T14:40:04.259Z,19.23
2023-04-06T14:42:31.193Z,19.30
2023-04-06T14:44:59.487Z,19.34
2023-04-06T14:47:26.503Z,19.40
2023-04-06T14:49:54.644Z,19.40
2023-04-06T14:52:21.811Z,19.42
2023-04-06T14:54:49.005Z,19.42
2023-04-06T14:57:16.119Z,19.43
2023-04-06T14:59:43.373Z,19.43
2023-04-06T15:02:10.754Z,19.44
2023-04-06T15:04:38.136Z,19.47
2023-04-06T15:07:05.504Z,19.51
2023-04-06T15:09:32.479Z,19.51
2023-04-06T15:11:59.323Z,19.38
2023-04-06T15:14:26.363Z,19.43
2023-04-06T15:16:56.177Z,19.48
2023-04-06T15:19:23.305Z,19.55
2023-04-06T15:21:50.258Z,19.62
2023-04-06T15:24:20.472Z,19.66
2023-04-06T15:26:50.006Z,19.69
2023-04-06T15:29:17.131Z,19.69
2023-04-06T15:31:44.092Z,19.50
2023-04-06T15:34:11.364Z,19.46
2023-04-06T15:36:38.492Z,19.55
2023-04-06T15:39:10.127Z,19.62
2023-04-06T15:41:37.468Z,19.66
2023-04-06T15:44:05.061Z,19.70
2023-04-06T15:46:32.033Z,19.73
2023-04-06T15:48:59.184Z,19.72
2023-04-06T15:51:26.708Z,19.55
2023-04-06T15:53:53.963Z,19.44
2023-04-06T15:56:21.260Z,19.44
2023-04-06T15:58:48.630Z,19.46
2023-04-06T16:01:17.324Z,19.51
2023-04-06T16:03:45.245Z,19.55
2023-04-06T16:06:16.698Z,19.63
2023-04-06T16:08:45.754Z,19.65
2023-04-06T16:11:13.227Z,19.72
2023-04-06T16:13:41.640Z,19.76
2023-04-06T16:16:10.158Z,19.74
2023-04-06T16:18:37.442Z,19.77
2023-04-06T16:21:04.340Z,19.76
2023-04-06T16:23:31.617Z,19.70
2023-04-06T16:25:58.780Z,19.73
2023-04-06T16:28:25.933Z,19.75
2023-04-06T16:30:53.420Z,19.74
2023-04-06T16:33:20.693Z,19.74
2023-04-06T16:35:47.863Z,19.73
2023-04-06T16:38:16.467Z,19.71
2023-04-06T16:40:43.484Z,19.68
2023-04-06T16:43:10.626Z,19.67
2023-04-06T16:45:38.844Z,19.66
2023-04-06T16:48:06.454Z,19.74
2023-04-06T16:50:33.907Z,19.77
2023-04-06T16:53:02.532Z,19.84
2023-04-06T16:55:31.276Z,19.82
2023-04-06T16:58:02.399Z,19.76
2023-04-06T17:00:29.710Z,19.70
2023-04-06T17:02:56.876Z,19.62
2023-04-06T17:05:27.002Z,19.56
2023-04-06T17:07:54.032Z,19.49
2023-04-06T17:10:28.739Z,19.43
2023-04-06T17:13:01.220Z,19.38
2023-04-06T17:15:30.261Z,19.34
2023-04-06T17:17:58.058Z,19.30
2023-04-06T17:20:25.035Z,19.27
2023-04-06T17:22:51.938Z,19.25
2023-04-06T17:25:19.071Z,19.20
2023-04-06T17:27:46.102Z,19.19
2023-04-06T17:30:14.196Z,19.17
2023-04-06T17:32:41.846Z,19.14
2023-04-06T17:35:10.312Z,19.13
2023-04-06T17:37:38.101Z,19.09
2023-04-06T17:40:06.539Z,19.08
2023-04-06T17:42:33.305Z,19.05
2023-04-06T17:45:00.709Z,19.02
2023-04-06T17:47:32.402Z,19.01
2023-04-06T17:50:00.268Z,18.98
2023-04-06T17:52:27.585Z,18.95
2023-04-06T17:54:54.574Z,18.92
2023-04-06T17:57:21.682Z,18.90
2023-04-06T17:59:48.890Z,18.85
2023-04-06T18:02:16.291Z,18.84
2023-04-06T18:04:44.417Z,18.82
2023-04-06T18:07:11.674Z,18.81
2023-04-06T18:09:39.952Z,18.79
2023-04-06T18:12:07.251Z,18.77
2023-04-06T18:14:34.087Z,18.74
2023-04-06T18:17:00.800Z,18.73
2023-04-06T18:19:29.016Z,18.70
2023-04-06T18:21:56.164Z,18.69
2023-04-06T18:24:32.053Z,18.68
2023-04-06T18:26:59.824Z,18.66
2023-04-06T18:29:26.633Z,18.64
2023-04-06T18:31:55.352Z,18.62
2023-04-06T18:34:23.110Z,18.60
2023-04-06T18:36:49.812Z,18.58
2023-04-06T18:39:16.525Z,18.57
2023-04-06T18:41:43.503Z,18.55
2023-04-06T18:44:10.285Z,18.54
2023-04-06T18:46:37.113Z,18.52
2023-04-06T18:49:04.513Z,18.51
2023-04-06T18:51:32.126Z,18.49
2023-04-06T18:54:01.458Z,18.47
2023-04-06T18:56:28.482Z,18.46
2023-04-06T18:58:55.590Z,18.45
2023-04-06T19:01:24.126Z,18.43
2023-04-06T19:03:53.563Z,18.42
2023-04-06T19:06:21.741Z,18.40
2023-04-06T19:08:49.106Z,18.39
2023-04-06T19:11:16.767Z,18.37
2023-04-06T19:13:50.325Z,18.37
2023-04-06T19:16:18.359Z,18.35
2023-04-06T19:18:45.819Z,18.34
2023-04-06T19:21:17.229Z,18.32
2023-04-06T19:23:48.841Z,18.33
2023-04-06T19:26:17.142Z,18.33
2023-04-06T19:28:44.715Z,18.31
2023-04-06T19:31:12.828Z,18.30
2023-04-06T19:33:40.096Z,18.30
2023-04-06T19:36:08.142Z,18.28
2023-04-06T19:38:36.217Z,18.25
2023-04-06T19:41:03.624Z,18.24
2023-04-06T19:43:30.624Z,18.21
2023-04-06T19:45:59.004Z,18.20
2023-04-06T19:48:25.942Z,18.20
2023-04-06T19:50:53.643Z,18.18
2023-04-06T19:53:21.229Z,18.17
2023-04-06T19:55:48.331Z,18.15
2023-04-06T19:58:15.108Z,18.14
2023-04-06T20:00:41.839Z,18.14
2023-04-06T20:03:08.973Z,18.12
2023-04-06T20:05:36.144Z,18.10
2023-04-06T20:08:02.893Z,18.09
2023-04-06T20:10:29.678Z,18.09
2023-04-06T20:12:56.654Z,18.08
2023-04-06T20:15:23.478Z,18.05
2023-04-06T20:17:50.288Z,18.04
2023-04-06T20:20:17.129Z,18.03
2023-04-06T20:22:44.082Z,18.02
2023-04-06T20:25:11.632Z,18.01
2023-04-06T20:27:38.359Z,17.98
2023-04-06T20:30:05.858Z,17.98
2023-04-06T20:32:33.497Z,17.99
2023-04-06T20:35:00.676Z,17.98
2023-04-06T20:37:27.459Z,17.95
2023-04-06T20:39:54.184Z,17.94
2023-04-06T20:42:22.852Z,17.92
2023-04-06T20:44:51.012Z,17.90
2023-04-06T20:47:18.071Z,17.90
2023-04-06T20:49:45.100Z,17.89
2023-04-06T20:52:11.931Z,17.88
2023-04-06T20:54:38.702Z,17.87
2023-04-06T20:57:05.601Z,17.85
2023-04-06T20:59:32.302Z,17.83
2023-04-06T21:01:59.347Z,17.82
2023-04-06T21:04:26.577Z,17.81
2023-04-06T21:06:53.474Z,17.79
2023-04-06T21:09:20.457Z,17.78
2023-04-06T21:11:47.243Z,17.78
2023-04-06T21:14:15.173Z,17.75
2023-04-06T21:16:42.135Z,17.74
2023-04-06T21:19:08.954Z,17.73
2023-04-06T21:21:35.676Z,17.70
2023-04-06T21:24:02.416Z,17.69
2023-04-06T21:26:29.097Z,17.68
2023-04-06T21:28:56.286Z,17.67
2023-04-06T21:31:23.249Z,17.65
2023-04-06T21:33:50.154Z,17.64
2023-04-06T21:36:17.101Z,17.62
2023-04-06T21:38:43.831Z,17.61
2023-04-06T21:41:11.108Z,17.58
2023-04-06T21:43:37.955Z,17.57
2023-04-06T21:46:05.106Z,17.55
2023-04-06T21:48:32.180Z,17.54
2023-04-06T21:50:58.905Z,17.54
2023-04-06T21:53:25.681Z,17.53
2023-04-06T21:55:52.696Z,17.52
2023-04-06T21:58:19.493Z,17.50
2023-04-06T22:00:46.542Z,17.48
2023-04-06T22:03:13.453Z,17.47
2023-04-06T22:05:40.259Z,17.47
2023-04-06T22:08:07.423Z,17.46
2023-04-06T22:10:35.209Z,17.44
2023-04-06T22:13:01.925Z,17.42
2023-04-06T22:15:28.778Z,17.41
2023-04-06T22:17:55.525Z,17.39
2023-04-06T22:20:22.260Z,17.39
2023-04-06T22:22:49.032Z,17.38
2023-04-06T22:25:15.768Z,17.36
2023-04-06T22:27:42.512Z,17.34
2023-04-06T22:30:09.706Z,17.34
2023-04-06T22:32:36.818Z,17.34
2023-04-06T22:35:03.646Z,17.32
2023-04-06T22:37:30.500Z,17.30
2023-04-06T22:39:57.343Z,17.29
2023-04-06T22:42:24.123Z,17.29
2023-04-06T22:44:50.843Z,17.27
2023-04-06T22:47:17.599Z,17.25
2023-04-06T22:49:44.463Z,17.24
2023-04-06T22:52:11.260Z,17.24
2023-04-06T22:54:38.042Z,17.22
2023-04-06T22:57:04.784Z,17.20
2023-04-06T22:59:31.698Z,17.18
2023-04-06T23:01:58.586Z,17.19
2023-04-06T23:04:25.973Z,17.17
2023-04-06T23:06:53.033Z,17.16
2023-04-06T23:09:20.053Z,17.15
2023-04-06T23:11:46.926Z,17.13
2023-04-06T23:14:14.277Z,17.13
2023-04-06T23:16:41.731Z,17.12
2023-04-06T23:19:08.697Z,17.11
2023-04-06T23:21:35.625Z,17.10
2023-04-06T23:24:02.852Z,17.09
2023-04-06T23:26:29.935Z,17.08
2023-04-06T23:28:56.853Z,17.06
2023-04-06T23:31:23.629Z,17.05
2023-04-06T23:33:50.560Z,17.04
2023-04-06T23:36:17.342Z,17.02
2023-04-06T23:38:44.158Z,17.01
2023-04-06T23:41:15.168Z,17.01
2023-04-06T23:43:42.141Z,17.00
2023-04-06T23:46:09.342Z,16.99
2023-04-06T23:48:36.407Z,16.96
2023-04-06T23:51:03.353Z,16.96
2023-04-06T23:53:30.504Z,16.95
2023-04-06T23:55:57.474Z,16.94
2023-04-06T23:58:24.482Z,16.95
